Time,TemperatureF,DewpointF,PressureIn,WindDirection,WindDirectionDegrees,WindSpeedMPH,WindSpeedGustMPH,Humidity,HourlyPrecipIn,Conditions,Clouds,dailyrainin,SoftwareType,DateUTC
2013-04-04 00:00:00,31.6,20.4,31.10,SW,214,3.5,3.5,63,0.00,OVC,FEW,0.00,WeatherDisplay:10.37,2013-04-04 04:00:00,
2013-04-04 00:01:00,31.6,20.4,31.10,SSW,205,3.5,3.5,63,0.00,OVC,FEW,0.00,WeatherDisplay:10.37,2013-04-04 04:01:00,
2013-04-04 00:06:00,31.6,20.4,31.10,SSW,200,2.3,2.3,63,0.00,OVC,FEW,0.00,WeatherDisplay:10.37,2013-04-04 04:06:00,
2013-04-04 00:08:00,31.6,20.4,31.10,SSW,203,2.3,2.3,63,0.00,OVC,FEW,0.00,WeatherDisplay:10.37,2013-04-04 04:08:00,
2013-04-04 00:09:00,31.6,20.4,31.10,SSW,198,1.2,1.2,63,0.00,OVC,FEW,0.00,WeatherDisplay:10.37,2013-04-04 04:09:00,
2013-04-04 00:14:00,31.2,20.1,31.10,SSW,198,0.0,0.0,63,0.00,OVC,FEW,0.00,WeatherDisplay:10.37,2013-04-04 04:14:00,
2013-04-04 00:19:00,30.8,20.0,31.10,WSW,255,1.2,1.2,64,0.00,OVC,FEW,0.00,WeatherDisplay:10.37,2013-04-04 04:19:00,
2013-04-04 00:24:00,30.5,19.8,31.10,WSW,249,0.0,0.0,64,0.00,OVC,FEW,0.00,WeatherDisplay:10.37,2013-04-04 04:24:00,
2013-04-04 00:30:00,30.2,19.8,31.10,WSW,242,0.0,1.0,65,0.00,OVC,FEW,0.00,WeatherDisplay:10.37,2013-04-04 04:30:00,
2013-04-04 00:35:00,30.3,20.3,31.10,SW,219,1.2,1.2,66,0.00,OVC,FEW,0.00,WeatherDisplay:10.37,2013-04-04 04:35:00,
2013-04-04 00:40:00,30.5,20.5,31.10,SW,217,2.3,2.3,66,0.00,OVC,FEW,0.00,WeatherDisplay:10.37,2013-04-04 04:40:00,
2013-04-04 00:45:00,30.8,20.8,31.11,SW,218,3.5,3.5,66,0.00,OVC,FEW,0.00,WeatherDisplay:10.37,2013-04-04 04:45:00,
2013-04-04 00:50:00,31.0,20.6,31.11,SW,228,2.3,2.3,65,0.00,OVC,FEW,0.00,WeatherDisplay:10.37,2013-04-04 04:50:00,
2013-04-04 00:56:00,31.0,20.6,31.10,SW,218,2.3,2.3,65,0.00,OVC,FEW,0.00,WeatherDisplay:10.37,2013-04-04 04:56:00,
2013-04-04 01:01:00,31.0,20.6,31.10,SW,217,2.3,2.3,65,0.00,OVC,FEW,0.00,WeatherDisplay:10.37,2013-04-04 05:01:00,
2013-04-04 01:06:00,31.0,20.6,31.11,SW,218,2.3,2.3,65,0.00,OVC,FEW,0.00,WeatherDisplay:10.37,2013-04-04 05:06:00,
2013-04-04 01:11:00,30.9,20.9,31.11,SSW,203,3.5,3.5,66,0.00,OVC,FEW,0.00,WeatherDisplay:10.37,2013-04-04 05:11:00,
2013-04-04 01:16:00,31.0,21.0,31.11,SW,219,2.3,2.3,66,0.00,OVC,FEW,0.00,WeatherDisplay:10.37,2013-04-04 05:16:00,
2013-04-04 01:21:00,31.0,21.0,31.11,SSW,210,3.5,3.5,66,0.00,OVC,FEW,0.00,WeatherDisplay:10.37,2013-04-04 05:21:00,
2013-04-04 01:26:00,30.8,20.8,31.11,SSW,210,1.2,1.2,66,0.00,OVC,FEW,0.00,WeatherDisplay:10.37,2013-04-04 05:26:00,
2013-04-04 01:31:00,30.5,20.5,31.10,SSW,202,1.2,1.2,66,0.00,OVC,FEW,0.00,WeatherDisplay:10.37,2013-04-04 05:31:00,
2013-04-04 01:36:00,30.3,20.6,31.10,SW,215,1.2,1.2,67,0.00,OVC,FEW,0.00,WeatherDisplay:10.37,2013-04-04 05:36:00,
2013-04-04 01:41:00,30.2,20.9,31.10,SSW,212,2.3,2.3,68,0.00,OVC,FEW,0.00,WeatherDisplay:10.37,2013-04-04 05:41:00,
2013-04-04 01:47:00,30.1,20.8,31.10,SW,225,1.2,1.2,68,0.00,OVC,FEW,0.00,WeatherDisplay:10.37,2013-04-04 05:47:00,
2013-04-04 01:52:00,29.9,21.0,31.10,SW,217,1.2,1.2,69,0.00,OVC,FEW,0.00,WeatherDisplay:10.37,2013-04-04 05:52:00,
2013-04-04 01:57:00,29.7,20.8,31.10,SW,217,0.0,0.0,69,0.00,OVC,FEW,0.00,WeatherDisplay:10.37,2013-04-04 05:57:00,
2013-04-04 02:02:00,29.4,20.5,31.10,SW,217,0.0,0.0,69,0.00,OVC,FEW,0.00,WeatherDisplay:10.37,2013-04-04 06:02:00,
2013-04-04 02:08:00,29.7,21.4,31.10,SSW,210,1.2,1.2,71,0.00,OVC,FEW,0.00,WeatherDisplay:10.37,2013-04-04 06:08:00,
2013-04-04 02:13:00,29.9,21.6,31.10,SW,221,2.3,2.3,71,0.00,OVC,FEW,0.00,WeatherDisplay:10.37,2013-04-04 06:13:00,
2013-04-04 02:18:00,30.0,21.4,31.10,SSW,207,1.2,1.2,70,0.00,OVC,FEW,0.00,WeatherDisplay:10.37,2013-04-04 06:18:00,
2013-04-04 02:25:00,29.8,21.5,31.10,SSW,207,1.2,0.0,71,0.00,OVC,FEW,0.00,WeatherDisplay:10.37,2013-04-04 06:25:00,
2013-04-04 02:30:00,29.5,20.9,31.09,SSW,207,0.0,0.0,70,0.00,OVC,FEW,0.00,WeatherDisplay:10.37,2013-04-04 06:30:00,
2013-04-04 02:35:00,28.9,20.3,31.09,SSW,207,1.2,1.2,70,0.00,OVC,FEW,0.00,WeatherDisplay:10.37,2013-04-04 06:35:00,
2013-04-04 02:41:00,28.4,20.2,31.09,SSW,198,2.3,2.3,71,0.00,OVC,FEW,0.00,WeatherDisplay:10.37,2013-04-04 06:41:00,
2013-04-04 02:46:00,28.6,20.7,31.09,SW,221,1.2,0.0,72,0.00,OVC,FEW,0.00,WeatherDisplay:10.37,2013-04-04 06:46:00,
2013-04-04 02:51:00,28.2,20.3,31.09,SW,221,0.0,0.0,72,0.00,OVC,FEW,0.00,WeatherDisplay:10.37,2013-04-04 06:51:00,
2013-04-04 02:56:00,27.5,19.7,31.09,SW,221,0.0,0.0,72,0.00,OVC,FEW,0.00,WeatherDisplay:10.37,2013-04-04 06:56:00,
2013-04-04 03:01:00,27.1,19.3,31.09,SW,221,0.0,0.0,72,0.00,OVC,FEW,0.00,WeatherDisplay:10.37,2013-04-04 07:01:00,
2013-04-04 03:06:00,26.8,19.3,31.08,SW,221,0.0,0.0,73,0.00,OVC,FEW,0.00,WeatherDisplay:10.37,2013-04-04 07:06:00,
2013-04-04 03:11:00,26.7,19.5,31.08,SW,221,0.0,0.0,74,0.00,OVC,FEW,0.00,WeatherDisplay:10.37,2013-04-04 07:11:00,
2013-04-04 03:17:00,26.7,19.8,31.08,SW,221,0.0,0.0,75,0.00,OVC,FEW,0.00,WeatherDisplay:10.37,2013-04-04 07:17:00,
2013-04-04 03:23:00,26.6,19.7,31.08,SW,221,0.0,0.0,75,0.00,OVC,FEW,0.00,WeatherDisplay:10.37,2013-04-04 07:23:00,
2013-04-04 03:28:00,26.3,19.5,31.07,SW,221,1.2,1.2,75,0.00,OVC,FEW,0.00,WeatherDisplay:10.37,2013-04-04 07:28:00,
2013-04-04 03:33:00,26.0,19.5,31.07,SW,221,0.0,0.0,76,0.00,OVC,FEW,0.00,WeatherDisplay:10.37,2013-04-04 07:33:00,
2013-04-04 03:38:00,25.7,19.2,31.07,SW,220,0.0,0.0,76,0.00,OVC,FEW,0.00,WeatherDisplay:10.37,2013-04-04 07:38:00,
2013-04-04 03:43:00,25.5,19.3,31.07,SW,220,0.0,0.0,77,0.00,OVC,FEW,0.00,WeatherDisplay:10.37,2013-04-04 07:43:00,
2013-04-04 03:48:00,25.9,20.6,31.07,SW,214,2.3,2.3,80,0.00,OVC,FEW,0.00,WeatherDisplay:10.37,2013-04-04 07:48:00,
2013-04-04 03:53:00,27.3,21.6,31.07,SW,218,3.0,3.0,79,0.00,OVC,FEW,0.00,WeatherDisplay:10.37,2013-04-04 07:53:00,
2013-04-04 03:58:00,27.9,21.6,31.07,SW,225,1.2,0.0,77,0.00,OVC,FEW,0.00,WeatherDisplay:10.37,2013-04-04 07:58:00,
2013-04-04 04:04:00,27.6,20.7,31.06,SW,225,1.2,1.2,75,0.00,OVC,FEW,0.00,WeatherDisplay:10.37,2013-04-04 08:04:00,
2013-04-04 04:10:00,27.3,20.4,31.06,SW,225,0.0,0.0,75,0.00,OVC,FEW,0.00,WeatherDisplay:10.37,2013-04-04 08:10:00,
2013-04-04 04:15:00,27.0,20.4,31.07,SW,225,0.0,0.0,76,0.00,OVC,FEW,0.00,WeatherDisplay:10.37,2013-04-04 08:15:00,
2013-04-04 04:20:00,26.7,20.1,31.07,SSW,205,1.2,0.0,76,0.00,OVC,FEW,0.00,WeatherDisplay:10.37,2013-04-04 08:20:00,
2013-04-04 04:25:00,27.0,21.1,31.07,WSW,256,2.3,2.3,78,0.00,OVC,FEW,0.00,WeatherDisplay:10.37,2013-04-04 08:25:00,
2013-04-04 04:30:00,27.5,21.2,31.06,SSW,195,3.0,3.0,77,0.00,OVC,FEW,0.00,WeatherDisplay:10.37,2013-04-04 08:30:00,
2013-04-04 04:35:00,28.1,21.5,31.06,SW,229,3.5,3.5,76,0.00,OVC,FEW,0.00,WeatherDisplay:10.37,2013-04-04 08:35:00,
2013-04-04 04:40:00,28.5,21.3,31.06,SW,225,4.6,4.6,74,0.00,OVC,FEW,0.00,WeatherDisplay:10.37,2013-04-04 08:40:00,
2013-04-04 04:45:00,28.7,21.1,31.06,SW,221,3.5,3.5,73,0.00,OVC,FEW,0.00,WeatherDisplay:10.37,2013-04-04 08:45:00,
2013-04-04 04:50:00,28.9,21.0,31.06,SW,222,3.5,3.5,72,0.00,OVC,FEW,0.00,WeatherDisplay:10.37,2013-04-04 08:50:00,
2013-04-04 04:55:00,29.0,21.1,31.06,SSW,207,3.5,3.5,72,0.00,OVC,FEW,0.00,WeatherDisplay:10.37,2013-04-04 08:55:00,
2013-04-04 05:00:00,29.0,20.8,31.06,SW,232,3.5,3.5,71,0.00,OVC,FEW,0.00,WeatherDisplay:10.37,2013-04-04 09:00:00,
2013-04-04 05:07:00,29.3,21.1,31.06,SSW,207,4.6,4.6,71,0.00,OVC,FEW,0.00,WeatherDisplay:10.37,2013-04-04 09:07:00,
2013-04-04 05:12:00,29.5,20.9,31.06,WSW,238,5.8,5.8,70,0.00,OVC,FEW,0.00,WeatherDisplay:10.37,2013-04-04 09:12:00,
2013-04-04 05:17:00,29.7,21.1,31.06,SW,224,5.8,5.8,70,0.00,OVC,FEW,0.00,WeatherDisplay:10.37,2013-04-04 09:17:00,
2013-04-04 05:22:00,29.8,20.9,31.06,SW,217,5.8,5.8,69,0.00,OVC,FEW,0.00,WeatherDisplay:10.37,2013-04-04 09:22:00,
2013-04-04 05:27:00,30.0,21.1,31.06,SW,221,8.1,8.1,69,0.00,OVC,FEW,0.00,WeatherDisplay:10.37,2013-04-04 09:27:00,
2013-04-04 05:32:00,30.0,20.7,31.05,SSW,195,6.9,6.9,68,0.00,OVC,FEW,0.00,WeatherDisplay:10.37,2013-04-04 09:32:00,
2013-04-04 05:37:00,30.1,20.8,31.05,WSW,240,10.0,10.0,68,0.00,OVC,FEW,0.00,WeatherDisplay:10.37,2013-04-04 09:37:00,
2013-04-04 05:43:00,30.2,20.6,31.05,SW,218,8.1,8.1,67,0.00,OVC,FEW,0.00,WeatherDisplay:10.37,2013-04-04 09:43:00,
2013-04-04 05:48:00,30.3,20.6,31.05,West,270,9.2,9.2,67,0.00,OVC,FEW,0.00,WeatherDisplay:10.37,2013-04-04 09:48:00,
2013-04-04 05:53:00,30.4,20.7,31.05,SW,215,5.8,5.8,67,0.00,OVC,FEW,0.00,WeatherDisplay:10.37,2013-04-04 09:53:00,
2013-04-04 05:58:00,30.4,20.7,31.05,SSW,212,6.9,6.9,67,0.00,OVC,FEW,0.00,WeatherDisplay:10.37,2013-04-04 09:58:00,
2013-04-04 06:03:00,30.3,20.6,31.05,SSW,210,5.8,5.8,67,0.00,OVC,FEW,0.00,WeatherDisplay:10.37,2013-04-04 10:03:00,
2013-04-04 06:08:00,30.2,20.6,31.05,West,270,6.9,6.9,67,0.00,OVC,FEW,0.00,WeatherDisplay:10.37,2013-04-04 10:08:00,
2013-04-04 06:13:00,30.2,20.6,31.05,SW,230,3.5,3.5,67,0.00,OVC,FEW,0.00,WeatherDisplay:10.37,2013-04-04 10:13:00,
2013-04-04 06:19:00,30.1,20.5,31.05,SSW,209,3.5,3.5,67,0.00,OVC,FEW,0.00,WeatherDisplay:10.37,2013-04-04 10:19:00,
2013-04-04 06:25:00,30.0,20.4,31.05,West,271,1.2,1.2,67,0.00,OVC,FEW,0.00,WeatherDisplay:10.37,2013-04-04 10:25:00,
2013-04-04 06:31:00,29.6,20.3,31.05,West,266,2.3,2.3,68,0.00,OVC,FEW,0.00,WeatherDisplay:10.37,2013-04-04 10:31:00,
2013-04-04 06:36:00,29.4,20.1,31.05,WSW,240,3.5,3.5,68,0.00,OVC,FEW,0.00,WeatherDisplay:10.37,2013-04-04 10:36:00,
2013-04-04 06:41:00,29.2,20.3,31.04,SW,226,2.3,2.3,69,0.00,OVC,FEW,0.00,WeatherDisplay:10.37,2013-04-04 10:41:00,
2013-04-04 06:46:00,29.0,20.1,31.04,SW,218,1.2,1.2,69,0.00,OVC,FEW,0.00,WeatherDisplay:10.37,2013-04-04 10:46:00,
2013-04-04 06:51:00,28.9,20.0,31.04,WSW,250,1.2,1.2,69,0.00,OVC,FEW,0.00,WeatherDisplay:10.37,2013-04-04 10:51:00,
2013-04-04 06:56:00,28.9,20.3,31.04,SW,228,2.3,2.3,70,0.00,OVC,FEW,0.00,WeatherDisplay:10.37,2013-04-04 10:56:00,
2013-04-04 07:02:00,28.8,20.2,31.04,SW,225,3.5,3.5,70,0.00,OVC,FEW,0.00,WeatherDisplay:10.37,2013-04-04 11:02:00,
2013-04-04 07:07:00,28.8,19.9,31.04,SSW,207,3.5,3.5,69,0.00,OVC,FEW,0.00,WeatherDisplay:10.37,2013-04-04 11:07:00,
2013-04-04 07:12:00,28.8,19.9,31.03,SSW,211,3.5,3.5,69,0.00,OVC,FEW,0.00,WeatherDisplay:10.37,2013-04-04 11:12:00,
2013-04-04 07:17:00,28.7,19.8,31.03,West,260,1.2,1.2,69,0.00,OVC,FEW,0.00,WeatherDisplay:10.37,2013-04-04 11:17:00,
2013-04-04 07:23:00,28.6,20.1,31.03,WSW,243,3.5,3.5,70,0.00,OVC,FEW,0.00,WeatherDisplay:10.37,2013-04-04 11:23:00,
2013-04-04 07:28:00,28.6,19.7,31.02,South,176,2.0,2.0,69,0.00,OVC,FEW,0.00,WeatherDisplay:10.37,2013-04-04 11:28:00,
2013-04-04 07:33:00,28.7,19.5,31.03,SSW,195,2.3,2.3,68,0.00,OVC,FEW,0.00,WeatherDisplay:10.37,2013-04-04 11:33:00,
2013-04-04 07:38:00,28.9,19.7,31.02,WSW,257,3.5,3.5,68,0.00,OVC,FEW,0.00,WeatherDisplay:10.37,2013-04-04 11:38:00,
2013-04-04 07:44:00,29.1,19.8,31.02,SW,236,4.0,4.0,68,0.00,OVC,FEW,0.00,WeatherDisplay:10.37,2013-04-04 11:44:00,
2013-04-04 07:50:00,29.2,19.6,31.02,SSW,204,4.6,4.6,67,0.00,OVC,FEW,0.00,WeatherDisplay:10.37,2013-04-04 11:50:00,
2013-04-04 07:56:00,29.4,19.4,31.03,SSW,195,3.5,3.5,66,0.00,OVC,FEW,0.00,WeatherDisplay:10.37,2013-04-04 11:56:00,
2013-04-04 08:01:00,29.6,19.3,31.03,SW,221,5.0,5.0,65,0.00,OVC,FEW,0.00,WeatherDisplay:10.37,2013-04-04 12:01:00,
2013-04-04 08:06:00,29.7,19.4,31.02,SW,214,3.5,3.5,65,0.00,OVC,FEW,0.00,WeatherDisplay:10.37,2013-04-04 12:06:00,
2013-04-04 08:11:00,30.0,18.9,31.02,SW,233,4.0,4.0,63,0.00,OVC,FEW,0.00,WeatherDisplay:10.37,2013-04-04 12:11:00,
2013-04-04 08:16:00,30.2,18.7,31.02,SSW,194,3.5,3.5,62,0.00,OVC,FEW,0.00,WeatherDisplay:10.37,2013-04-04 12:16:00,
2013-04-04 08:21:00,30.4,18.2,31.02,SW,222,5.8,5.8,60,0.00,OVC,FEW,0.00,WeatherDisplay:10.37,2013-04-04 12:21:00,
2013-04-04 08:26:00,30.6,18.3,31.02,SW,230,6.9,6.9,60,0.00,OVC,FEW,0.00,WeatherDisplay:10.37,2013-04-04 12:26:00,
2013-04-04 08:32:00,30.9,17.8,31.02,SW,228,6.9,6.9,58,0.00,OVC,FEW,0.00,WeatherDisplay:10.37,2013-04-04 12:32:00,
2013-04-04 08:38:00,31.3,18.2,31.02,WSW,246,4.6,4.6,58,0.00,OVC,FEW,0.00,WeatherDisplay:10.37,2013-04-04 12:38:00,
2013-04-04 08:43:00,31.5,18.0,31.02,SW,234,4.6,4.6,57,0.00,OVC,FEW,0.00,WeatherDisplay:10.37,2013-04-04 12:43:00,
2013-04-04 08:49:00,32.0,18.5,31.02,WNW,294,4.6,4.6,57,0.00,OVC,FEW,0.00,WeatherDisplay:10.37,2013-04-04 12:49:00,
2013-04-04 08:54:00,32.2,18.2,31.02,South,189,3.5,3.5,56,0.00,OVC,FEW,0.00,WeatherDisplay:10.37,2013-04-04 12:54:00,
2013-04-04 09:00:00,32.5,17.7,31.01,South,183,10.4,10.4,54,0.00,OVC,FEW,0.00,WeatherDisplay:10.37,2013-04-04 13:00:00,
2013-04-04 09:06:00,32.7,17.9,31.01,SSW,199,8.1,8.1,54,0.00,OVC,FEW,0.00,WeatherDisplay:10.37,2013-04-04 13:06:00,
2013-04-04 09:11:00,32.9,17.6,31.01,SW,217,10.4,10.4,53,0.00,OVC,FEW,0.00,WeatherDisplay:10.37,2013-04-04 13:11:00,
2013-04-04 09:17:00,33.4,17.2,31.00,SW,228,11.5,11.5,51,0.00,OVC,FEW,0.00,WeatherDisplay:10.37,2013-04-04 13:17:00,
2013-04-04 09:23:00,33.7,17.5,31.00,South,174,6.9,6.9,51,0.00,OVC,FEW,0.00,WeatherDisplay:10.37,2013-04-04 13:23:00,
2013-04-04 09:28:00,34.5,17.3,30.99,SSW,198,8.1,8.1,49,0.00,OVC,FEW,0.00,WeatherDisplay:10.37,2013-04-04 13:28:00,
2013-04-04 09:33:00,34.8,17.1,30.99,SW,229,9.2,9.2,48,0.00,OVC,FEW,0.00,WeatherDisplay:10.37,2013-04-04 13:33:00,
2013-04-04 09:38:00,35.2,17.0,30.99,SSW,207,11.5,11.5,47,0.00,OVC,FEW,0.00,WeatherDisplay:10.37,2013-04-04 13:38:00,
2013-04-04 09:44:00,35.5,16.7,30.98,SW,222,11.5,11.5,46,0.00,OVC,FEW,0.00,WeatherDisplay:10.37,2013-04-04 13:44:00,
2013-04-04 09:50:00,35.7,16.9,30.98,SW,221,9.2,9.2,46,0.00,OVC,FEW,0.00,WeatherDisplay:10.37,2013-04-04 13:50:00,
2013-04-04 09:55:00,36.0,17.2,30.98,SW,229,8.1,8.1,46,0.00,OVC,FEW,0.00,WeatherDisplay:10.37,2013-04-04 13:55:00,
2013-04-04 10:00:00,36.5,17.1,30.97,SE,145,6.9,6.9,45,0.00,OVC,FEW,0.00,WeatherDisplay:10.37,2013-04-04 14:00:00,
2013-04-04 10:05:00,36.5,16.1,30.97,South,179,9.2,9.2,43,0.00,OVC,FEW,0.00,WeatherDisplay:10.37,2013-04-04 14:05:00,
2013-04-04 10:10:00,36.7,16.3,30.97,WSW,242,11.5,11.5,43,0.00,OVC,FEW,0.00,WeatherDisplay:10.37,2013-04-04 14:10:00,
2013-04-04 10:16:00,37.0,16.5,30.97,SW,221,10.4,10.4,43,0.00,OVC,FEW,0.00,WeatherDisplay:10.37,2013-04-04 14:16:00,
2013-04-04 10:21:00,37.7,16.6,30.96,SW,225,6.9,6.9,42,0.00,OVC,FEW,0.00,WeatherDisplay:10.37,2013-04-04 14:21:00,
2013-04-04 10:27:00,38.5,17.4,30.96,SSW,195,8.1,8.1,42,0.00,OVC,FEW,0.00,WeatherDisplay:10.37,2013-04-04 14:27:00,
2013-04-04 10:33:00,38.7,16.4,30.96,SW,228,11.5,11.5,40,0.00,OVC,FEW,0.00,WeatherDisplay:10.37,2013-04-04 14:33:00,
2013-04-04 10:38:00,39.0,16.7,30.96,SSE,159,6.9,6.9,40,0.00,OVC,FEW,0.00,WeatherDisplay:10.37,2013-04-04 14:38:00,
2013-04-04 10:43:00,39.3,16.4,30.95,SW,235,9.2,9.2,39,0.00,OVC,FEW,0.00,WeatherDisplay:10.37,2013-04-04 14:43:00,
2013-04-04 10:48:00,39.6,16.6,30.95,WSW,242,11.5,11.5,39,0.00,OVC,FEW,0.00,WeatherDisplay:10.37,2013-04-04 14:48:00,
2013-04-04 10:53:00,39.9,16.9,30.95,SSE,148,3.5,3.5,39,0.00,OVC,FEW,0.00,WeatherDisplay:10.37,2013-04-04 14:53:00,
2013-04-04 10:59:00,40.5,15.6,30.94,NNW,328,8.1,8.1,36,0.00,OVC,FEW,0.00,WeatherDisplay:10.37,2013-04-04 14:59:00,
2013-04-04 11:04:00,41.2,16.9,30.94,SSW,207,5.8,5.8,37,0.00,OVC,FEW,0.00,WeatherDisplay:10.37,2013-04-04 15:04:00,
2013-04-04 11:09:00,41.5,15.8,30.94,South,179,8.1,8.1,35,0.00,OVC,FEW,0.00,WeatherDisplay:10.37,2013-04-04 15:09:00,
2013-04-04 11:14:00,41.9,16.9,30.93,SSW,200,8.1,8.1,36,0.00,OVC,FEW,0.00,WeatherDisplay:10.37,2013-04-04 15:14:00,
2013-04-04 11:20:00,42.0,16.3,30.93,SW,218,8.1,8.1,35,0.00,OVC,FEW,0.00,WeatherDisplay:10.37,2013-04-04 15:20:00,
2013-04-04 11:25:00,42.2,15.8,30.93,SSW,200,9.2,9.2,34,0.00,OVC,FEW,0.00,WeatherDisplay:10.37,2013-04-04 15:25:00,
2013-04-04 11:30:00,42.7,15.6,30.93,SSW,201,10.4,10.4,33,0.00,OVC,FEW,0.00,WeatherDisplay:10.37,2013-04-04 15:30:00,
2013-04-04 11:35:00,42.9,15.7,30.93,SSW,203,9.2,9.2,33,0.00,OVC,FEW,0.00,WeatherDisplay:10.37,2013-04-04 15:35:00,
2013-04-04 11:41:00,43.3,16.1,30.92,SW,214,6.0,6.0,33,0.00,OVC,FEW,0.00,WeatherDisplay:10.37,2013-04-04 15:41:00,
2013-04-04 11:46:00,44.1,17.5,30.92,SW,224,6.9,6.9,34,0.00,OVC,FEW,0.00,WeatherDisplay:10.37,2013-04-04 15:46:00,
2013-04-04 11:51:00,44.1,15.3,30.92,WSW,252,10.4,10.4,31,0.00,OVC,FEW,0.00,WeatherDisplay:10.37,2013-04-04 15:51:00,
2013-04-04 11:56:00,44.6,15.8,30.91,SW,217,9.0,9.0,31,0.00,OVC,FEW,0.00,WeatherDisplay:10.37,2013-04-04 15:56:00,
2013-04-04 12:02:00,44.8,16.0,30.91,SW,222,6.0,6.0,31,0.00,OVC,FEW,0.00,WeatherDisplay:10.37,2013-04-04 16:02:00,
2013-04-04 12:07:00,44.8,16.0,30.91,South,188,10.4,10.4,31,0.00,OVC,FEW,0.00,WeatherDisplay:10.37,2013-04-04 16:07:00,
2013-04-04 12:12:00,45.4,15.7,30.90,SSW,193,11.5,11.5,30,0.00,OVC,FEW,0.00,WeatherDisplay:10.37,2013-04-04 16:12:00,
2013-04-04 12:17:00,45.5,15.8,30.90,SSW,212,8.0,8.0,30,0.00,OVC,FEW,0.00,WeatherDisplay:10.37,2013-04-04 16:17:00,
2013-04-04 12:22:00,45.8,16.8,30.90,West,260,10.4,10.4,31,0.00,OVC,FEW,0.00,WeatherDisplay:10.37,2013-04-04 16:22:00,
2013-04-04 12:27:00,46.1,17.1,30.89,SSW,200,11.5,11.5,31,0.00,OVC,FEW,0.00,WeatherDisplay:10.37,2013-04-04 16:27:00,
2013-04-04 12:35:00,46.1,17.1,30.89,South,175,10.4,10.4,31,0.00,OVC,FEW,0.00,WeatherDisplay:10.37,2013-04-04 16:35:00,
2013-04-04 12:40:00,46.9,17.0,30.88,SSW,198,10.4,10.4,30,0.00,OVC,FEW,0.00,WeatherDisplay:10.37,2013-04-04 16:40:00,
2013-04-04 12:45:00,46.9,17.8,30.88,South,174,10.4,10.4,31,0.00,OVC,FEW,0.00,WeatherDisplay:10.37,2013-04-04 16:45:00,
2013-04-04 12:50:00,47.1,17.2,30.88,SSW,203,15.0,15.0,30,0.00,OVC,FEW,0.00,WeatherDisplay:10.37,2013-04-04 16:50:00,
2013-04-04 12:55:00,46.8,17.7,30.87,South,187,9.2,9.2,31,0.00,OVC,FEW,0.00,WeatherDisplay:10.37,2013-04-04 16:55:00,
2013-04-04 13:00:00,47.0,17.1,30.86,SW,229,11.5,11.5,30,0.00,OVC,FEW,0.00,WeatherDisplay:10.37,2013-04-04 17:00:00,
2013-04-04 13:05:00,47.7,18.5,30.87,SSW,204,13.8,13.8,31,0.00,OVC,FEW,0.00,WeatherDisplay:10.37,2013-04-04 17:05:00,
2013-04-04 13:10:00,47.6,19.2,30.86,SW,225,8.1,8.1,32,0.00,OVC,FEW,0.00,WeatherDisplay:10.37,2013-04-04 17:10:00,
2013-04-04 13:15:00,47.8,20.8,30.86,South,181,9.2,9.2,34,0.00,OVC,FEW,0.00,WeatherDisplay:10.37,2013-04-04 17:15:00,
2013-04-04 13:20:00,48.5,21.4,30.85,ESE,107,3.5,3.5,34,0.00,OVC,FEW,0.00,WeatherDisplay:10.37,2013-04-04 17:20:00,
2013-04-04 13:25:00,48.8,21.6,30.85,SSW,204,10.4,10.4,34,0.00,OVC,FEW,0.00,WeatherDisplay:10.37,2013-04-04 17:25:00,
2013-04-04 13:30:00,48.9,21.7,30.85,SW,219,8.1,8.1,34,0.00,OVC,FEW,0.00,WeatherDisplay:10.37,2013-04-04 17:30:00,
2013-04-04 13:35:00,48.8,21.6,30.84,SE,146,5.8,5.8,34,0.00,OVC,FEW,0.00,WeatherDisplay:10.37,2013-04-04 17:35:00,
2013-04-04 13:41:00,49.0,20.4,30.84,SW,224,11.5,11.5,32,0.00,OVC,FEW,0.00,WeatherDisplay:10.37,2013-04-04 17:41:00,
2013-04-04 13:50:00,48.8,19.5,30.83,SSW,207,12.7,12.7,31,0.00,OVC,FEW,0.00,WeatherDisplay:10.37,2013-04-04 17:50:00,
2013-04-04 13:56:00,49.3,20.6,30.83,SSW,213,10.4,10.4,32,0.00,OVC,FEW,0.00,WeatherDisplay:10.37,2013-04-04 17:56:00,
2013-04-04 14:02:00,48.9,19.5,30.83,ESE,121,11.5,11.5,31,0.00,OVC,FEW,0.00,WeatherDisplay:10.37,2013-04-04 18:02:00,
2013-04-04 14:07:00,49.3,20.6,30.82,SE,140,11.5,11.5,32,0.00,OVC,FEW,0.00,WeatherDisplay:10.37,2013-04-04 18:07:00,
2013-04-04 14:14:00,50.0,19.0,30.82,South,185,3.0,13.0,29,0.00,OVC,FEW,0.00,WeatherDisplay:10.37,2013-04-04 18:14:00,
2013-04-04 14:20:00,49.7,19.5,30.82,South,176,8.1,8.1,30,0.00,OVC,FEW,0.00,WeatherDisplay:10.37,2013-04-04 18:20:00,
2013-04-04 14:26:00,50.4,20.1,30.81,West,260,10.4,10.4,30,0.00,OVC,FEW,0.00,WeatherDisplay:10.37,2013-04-04 18:26:00,
2013-04-04 14:32:00,50.5,19.4,30.81,SE,141,9.2,9.2,29,0.00,OVC,FEW,0.00,WeatherDisplay:10.37,2013-04-04 18:32:00,
2013-04-04 14:37:00,50.8,19.6,30.80,SSW,198,9.2,9.2,29,0.00,OVC,FEW,0.00,WeatherDisplay:10.37,2013-04-04 18:37:00,
2013-04-04 14:42:00,50.6,19.5,30.80,SSW,210,9.2,9.2,29,0.00,OVC,FEW,0.00,WeatherDisplay:10.37,2013-04-04 18:42:00,
2013-04-04 14:47:00,50.4,19.3,30.80,SSW,210,12.7,12.7,29,0.00,OVC,FEW,0.00,WeatherDisplay:10.37,2013-04-04 18:47:00,
2013-04-04 14:52:00,50.6,19.5,30.79,South,180,11.5,11.5,29,0.00,OVC,FEW,0.00,WeatherDisplay:10.37,2013-04-04 18:52:00,
2013-04-04 14:57:00,51.0,19.8,30.79,SSE,159,9.2,9.2,29,0.00,OVC,FEW,0.00,WeatherDisplay:10.37,2013-04-04 18:57:00,
2013-04-04 15:02:00,51.3,20.1,30.79,SSE,166,11.5,11.5,29,0.00,OVC,FEW,0.00,WeatherDisplay:10.37,2013-04-04 19:02:00,
2013-04-04 15:07:00,52.0,19.9,30.78,SE,142,5.8,5.8,28,0.00,OVC,FEW,0.00,WeatherDisplay:10.37,2013-04-04 19:07:00,
2013-04-04 15:12:00,51.5,16.8,30.78,South,187,11.5,11.5,25,0.00,OVC,FEW,0.00,WeatherDisplay:10.37,2013-04-04 19:12:00,
2013-04-04 15:26:00,51.9,18.0,30.77,SW,224,11.5,11.5,26,0.00,OVC,FEW,0.00,WeatherDisplay:10.37,2013-04-04 19:26:00,
2013-04-04 15:31:00,52.0,16.3,30.77,SW,217,15.0,15.0,24,0.00,OVC,FEW,0.00,WeatherDisplay:10.37,2013-04-04 19:31:00,
2013-04-04 16:10:00,53.3,15.4,30.75,WSW,240,12.0,12.0,22,0.00,OVC,FEW,0.00,WeatherDisplay:10.37,2013-04-04 20:10:00,
2013-04-04 16:16:00,54.1,15.0,30.75,SSW,208,11.5,0.0,21,0.00,OVC,FEW,0.00,WeatherDisplay:10.37,2013-04-04 20:16:00,
2013-04-04 16:21:00,54.5,15.3,30.74,SSW,213,9.2,9.2,21,0.00,OVC,FEW,0.00,WeatherDisplay:10.37,2013-04-04 20:21:00,
2013-04-04 16:26:00,54.1,18.1,30.74,SSE,156,8.1,8.1,24,0.00,OVC,FEW,0.00,WeatherDisplay:10.37,2013-04-04 20:26:00,
2013-04-04 16:32:00,54.9,13.3,30.73,WSW,252,11.5,11.5,19,0.00,OVC,FEW,0.00,WeatherDisplay:10.37,2013-04-04 20:32:00,
2013-04-04 16:37:00,55.0,12.2,30.73,WSW,248,13.8,13.8,18,0.00,OVC,FEW,0.00,WeatherDisplay:10.37,2013-04-04 20:37:00,
2013-04-04 16:42:00,55.3,13.7,30.73,SSW,200,11.5,11.5,19,0.00,OVC,FEW,0.00,WeatherDisplay:10.37,2013-04-04 20:42:00,
2013-04-04 16:47:00,56.1,13.1,30.72,SSW,195,16.1,16.1,18,0.00,OVC,FEW,0.00,WeatherDisplay:10.37,2013-04-04 20:47:00,
2013-04-04 16:52:00,55.8,11.6,30.72,SSW,205,11.5,11.5,17,0.00,OVC,FEW,0.00,WeatherDisplay:10.37,2013-04-04 20:52:00,
2013-04-04 16:57:00,55.6,11.4,30.72,SSW,211,13.8,13.8,17,0.00,OVC,FEW,0.00,WeatherDisplay:10.37,2013-04-04 20:57:00,
2013-04-04 17:02:00,55.6,12.7,30.72,WSW,246,11.5,11.5,18,0.00,OVC,FEW,0.00,WeatherDisplay:10.37,2013-04-04 21:02:00,
2013-04-04 17:08:00,55.7,11.5,30.71,SW,225,10.4,10.5,17,0.00,OVC,FEW,0.00,WeatherDisplay:10.37,2013-04-04 21:08:00,
2013-04-04 17:13:00,55.5,11.3,30.71,SW,233,12.7,12.7,17,0.00,OVC,FEW,0.00,WeatherDisplay:10.37,2013-04-04 21:13:00,
2013-04-04 17:18:00,55.3,12.4,30.71,SSW,204,11.5,11.5,18,0.00,OVC,FEW,0.00,WeatherDisplay:10.37,2013-04-04 21:18:00,
2013-04-04 17:23:00,55.6,11.4,30.70,South,187,11.5,11.5,17,0.00,OVC,FEW,0.00,WeatherDisplay:10.37,2013-04-04 21:23:00,
2013-04-04 17:29:00,56.0,11.7,30.70,SW,224,17.3,17.3,17,0.00,OVC,FEW,0.00,WeatherDisplay:10.37,2013-04-04 21:29:00,
2013-04-04 17:34:00,55.7,12.8,30.70,WSW,250,11.5,11.5,18,0.00,OVC,FEW,0.00,WeatherDisplay:10.37,2013-04-04 21:34:00,
2013-04-04 17:40:00,55.7,12.8,30.69,SW,222,11.5,11.5,18,0.00,OVC,FEW,0.00,WeatherDisplay:10.37,2013-04-04 21:40:00,
2013-04-04 17:45:00,56.1,13.1,30.69,West,259,10.4,10.4,18,0.00,OVC,FEW,0.00,WeatherDisplay:10.37,2013-04-04 21:45:00,
2013-04-04 17:50:00,55.9,12.9,30.69,SW,233,19.6,19.6,18,0.00,OVC,FEW,0.00,WeatherDisplay:10.37,2013-04-04 21:50:00,
2013-04-04 17:56:00,55.7,11.5,30.69,SSW,211,10.4,10.4,17,0.00,OVC,FEW,0.00,WeatherDisplay:10.37,2013-04-04 21:56:00,
2013-04-04 18:01:00,55.7,14.0,30.69,SSW,212,13.0,13.0,19,0.00,OVC,FEW,0.00,WeatherDisplay:10.37,2013-04-04 22:01:00,
2013-04-04 18:06:00,56.1,13.1,30.69,NW,304,9.2,9.2,18,0.00,OVC,FEW,0.00,WeatherDisplay:10.37,2013-04-04 22:06:00,
2013-04-04 18:11:00,56.3,13.3,30.69,SW,222,11.5,11.5,18,0.00,OVC,FEW,0.00,WeatherDisplay:10.37,2013-04-04 22:11:00,
2013-04-04 18:16:00,56.2,13.2,30.69,SSW,213,14.0,14.2,18,0.00,OVC,FEW,0.00,WeatherDisplay:10.37,2013-04-04 22:16:00,
2013-04-04 18:22:00,56.0,13.0,30.69,SSW,195,9.2,9.5,18,0.00,OVC,FEW,0.00,WeatherDisplay:10.37,2013-04-04 22:22:00,
2013-04-04 18:27:00,56.2,14.4,30.69,WNW,287,5.8,6.5,19,0.00,OVC,FEW,0.00,WeatherDisplay:10.37,2013-04-04 22:27:00,
2013-04-04 18:32:00,56.3,14.5,30.69,SW,232,8.1,8.1,19,0.00,OVC,FEW,0.00,WeatherDisplay:10.37,2013-04-04 22:32:00,
2013-04-04 18:37:00,56.3,13.3,30.69,SW,217,16.1,16.1,18,0.00,OVC,FEW,0.00,WeatherDisplay:10.37,2013-04-04 22:37:00,
2013-04-04 18:42:00,55.9,14.2,30.69,West,261,10.4,10.4,19,0.00,OVC,FEW,0.00,WeatherDisplay:10.37,2013-04-04 22:42:00,
2013-04-04 18:47:00,56.0,14.3,30.69,SW,225,8.1,8.1,19,0.00,OVC,FEW,0.00,WeatherDisplay:10.37,2013-04-04 22:47:00,
2013-04-04 18:52:00,56.0,14.3,30.69,SW,228,12.0,12.0,19,0.00,OVC,FEW,0.00,WeatherDisplay:10.37,2013-04-04 22:52:00,
2013-04-04 18:57:00,55.9,15.3,30.68,SW,225,11.5,11.5,20,0.00,OVC,FEW,0.00,WeatherDisplay:10.37,2013-04-04 22:57:00,
2013-04-04 19:02:00,55.7,15.2,30.69,SW,225,10.4,10.4,20,0.00,OVC,FEW,0.00,WeatherDisplay:10.37,2013-04-04 23:02:00,
2013-04-04 19:07:00,55.7,15.2,30.69,SW,224,8.1,8.1,20,0.00,OVC,FEW,0.00,WeatherDisplay:10.37,2013-04-04 23:07:00,
2013-04-04 19:12:00,55.7,15.2,30.69,SSW,204,12.7,12.7,20,0.00,OVC,FEW,0.00,WeatherDisplay:10.37,2013-04-04 23:12:00,
2013-04-04 19:17:00,55.6,16.2,30.69,SSW,205,6.9,6.9,21,0.00,OVC,FEW,0.00,WeatherDisplay:10.37,2013-04-04 23:17:00,
2013-04-04 19:22:00,55.6,16.2,30.69,WSW,243,11.5,11.5,21,0.00,OVC,FEW,0.00,WeatherDisplay:10.37,2013-04-04 23:22:00,
2013-04-04 19:27:00,55.5,16.1,30.69,WNW,295,10.4,10.4,21,0.00,OVC,FEW,0.00,WeatherDisplay:10.37,2013-04-04 23:27:00,
2013-04-04 19:32:00,55.3,16.0,30.69,WSW,248,9.0,9.0,21,0.00,OVC,FEW,0.00,WeatherDisplay:10.37,2013-04-04 23:32:00,
2013-04-04 19:37:00,55.1,15.8,30.69,WSW,246,5.0,5.1,21,0.00,OVC,FEW,0.00,WeatherDisplay:10.37,2013-04-04 23:37:00,
2013-04-04 19:42:00,54.9,15.6,30.68,SW,215,4.0,4.4,21,0.00,OVC,FEW,0.00,WeatherDisplay:10.37,2013-04-04 23:42:00,
2013-04-04 19:47:00,54.6,16.5,30.68,SSW,201,4.0,4.0,22,0.00,OVC,FEW,0.00,WeatherDisplay:10.37,2013-04-04 23:47:00,
2013-04-04 19:53:00,54.1,16.0,30.68,SW,225,8.1,8.1,22,0.00,OVC,FEW,0.00,WeatherDisplay:10.37,2013-04-04 23:53:00,
2013-04-04 19:59:00,53.7,16.7,30.68,SW,233,6.0,6.0,23,0.00,OVC,FEW,0.00,WeatherDisplay:10.37,2013-04-04 23:59:00,
2013-04-04 20:05:00,53.5,16.6,30.68,SW,224,6.0,6.0,23,0.00,OVC,FEW,0.00,WeatherDisplay:10.37,2013-04-05 00:05:00,
2013-04-04 20:10:00,53.2,16.3,30.68,SW,214,11.5,11.5,23,0.00,OVC,FEW,0.00,WeatherDisplay:10.37,2013-04-05 00:10:00,
2013-04-04 20:15:00,53.0,17.1,30.68,SSW,205,6.9,6.9,24,0.00,OVC,FEW,0.00,WeatherDisplay:10.37,2013-04-05 00:15:00,
2013-04-04 20:20:00,52.8,16.9,30.68,WSW,245,11.0,11.0,24,0.00,OVC,FEW,0.00,WeatherDisplay:10.37,2013-04-05 00:20:00,
2013-04-04 20:26:00,52.6,16.8,30.67,SW,219,3.5,3.5,24,0.00,OVC,FEW,0.00,WeatherDisplay:10.37,2013-04-05 00:26:00,
2013-04-04 20:31:00,52.4,16.6,30.67,SSW,203,6.9,6.9,24,0.00,OVC,FEW,0.00,WeatherDisplay:10.37,2013-04-05 00:31:00,
2013-04-04 20:37:00,52.3,17.5,30.67,SW,222,4.6,4.6,25,0.00,OVC,FEW,0.00,WeatherDisplay:10.37,2013-04-05 00:37:00,
2013-04-04 20:42:00,52.1,17.3,30.68,South,185,5.8,5.8,25,0.00,OVC,FEW,0.00,WeatherDisplay:10.37,2013-04-05 00:42:00,
2013-04-04 20:47:00,51.9,17.1,30.68,SSW,207,6.9,6.9,25,0.00,OVC,FEW,0.00,WeatherDisplay:10.37,2013-04-05 00:47:00,
2013-04-04 20:52:00,51.8,17.0,30.68,SSW,203,4.0,4.0,25,0.00,OVC,FEW,0.00,WeatherDisplay:10.37,2013-04-05 00:52:00,
2013-04-04 20:57:00,51.6,17.8,30.68,SSW,203,4.6,4.6,26,0.00,OVC,FEW,0.00,WeatherDisplay:10.37,2013-04-05 00:57:00,
2013-04-04 21:02:00,51.4,17.6,30.68,SW,214,3.5,3.5,26,0.00,OVC,FEW,0.00,WeatherDisplay:10.37,2013-04-05 01:02:00,
2013-04-04 21:07:00,50.9,18.1,30.68,SE,135,2.3,2.3,27,0.00,OVC,FEW,0.00,WeatherDisplay:10.37,2013-04-05 01:07:00,
2013-04-04 21:13:00,49.6,18.6,30.68,SSW,204,3.5,3.5,29,0.00,OVC,FEW,0.00,WeatherDisplay:10.37,2013-04-05 01:13:00,
2013-04-04 21:18:00,49.1,19.0,30.68,SW,218,5.0,5.0,30,0.00,OVC,FEW,0.00,WeatherDisplay:10.37,2013-04-05 01:18:00,
2013-04-04 21:23:00,48.8,19.5,30.68,SSW,204,6.9,6.9,31,0.00,OVC,FEW,0.00,WeatherDisplay:10.37,2013-04-05 01:23:00,
2013-04-04 21:28:00,48.3,19.8,30.68,SSW,205,3.5,3.5,32,0.00,OVC,FEW,0.00,WeatherDisplay:10.37,2013-04-05 01:28:00,
2013-04-04 21:33:00,47.9,20.1,30.68,WSW,238,5.8,5.8,33,0.00,OVC,FEW,0.00,WeatherDisplay:10.37,2013-04-05 01:33:00,
2013-04-04 21:38:00,47.6,19.9,30.68,SSW,203,3.5,3.5,33,0.00,OVC,FEW,0.00,WeatherDisplay:10.37,2013-04-05 01:38:00,
2013-04-04 21:43:00,47.3,20.3,30.68,SW,224,3.5,3.5,34,0.00,OVC,FEW,0.00,WeatherDisplay:10.37,2013-04-05 01:43:00,
2013-04-04 21:48:00,46.7,20.5,30.68,South,173,3.5,3.5,35,0.00,OVC,FEW,0.00,WeatherDisplay:10.37,2013-04-05 01:48:00,
2013-04-04 21:54:00,45.9,20.4,30.68,SSE,166,2.3,2.3,36,0.00,OVC,FEW,0.00,WeatherDisplay:10.37,2013-04-05 01:54:00,
2013-04-04 21:59:00,45.7,20.2,30.68,South,189,3.5,3.5,36,0.00,OVC,FEW,0.00,WeatherDisplay:10.37,2013-04-05 01:59:00,
2013-04-04 22:04:00,45.8,20.3,30.69,South,177,4.6,4.6,36,0.00,OVC,FEW,0.00,WeatherDisplay:10.37,2013-04-05 02:04:00,
2013-04-04 22:10:00,45.7,20.2,30.69,SSW,210,4.0,4.0,36,0.00,OVC,FEW,0.00,WeatherDisplay:10.37,2013-04-05 02:10:00,
2013-04-04 22:15:00,45.6,20.8,30.68,SSW,212,3.5,3.5,37,0.00,OVC,FEW,0.00,WeatherDisplay:10.37,2013-04-05 02:15:00,
2013-04-04 22:20:00,45.4,20.6,30.69,WSW,239,4.0,4.0,37,0.00,OVC,FEW,0.00,WeatherDisplay:10.37,2013-04-05 02:20:00,
2013-04-04 22:25:00,45.2,20.4,30.69,SW,218,3.5,3.5,37,0.00,OVC,FEW,0.00,WeatherDisplay:10.37,2013-04-05 02:25:00,
2013-04-04 22:30:00,44.9,20.8,30.68,SSW,203,2.3,2.3,38,0.00,OVC,FEW,0.00,WeatherDisplay:10.37,2013-04-05 02:30:00,
2013-04-04 22:36:00,44.6,21.1,30.68,SW,216,1.2,0.0,39,0.00,OVC,FEW,0.00,WeatherDisplay:10.37,2013-04-05 02:36:00,
2013-04-04 22:41:00,44.2,21.4,30.68,SSW,212,1.2,1.2,40,0.00,OVC,FEW,0.00,WeatherDisplay:10.37,2013-04-05 02:41:00,
2013-04-04 22:47:00,43.9,21.7,30.68,South,191,2.3,2.3,41,0.00,OVC,FEW,0.00,WeatherDisplay:10.37,2013-04-05 02:47:00,
2013-04-04 22:52:00,43.8,21.6,30.68,SW,225,3.0,3.0,41,0.00,OVC,FEW,0.00,WeatherDisplay:10.37,2013-04-05 02:52:00,
2013-04-04 22:58:00,44.3,22.1,30.68,WSW,238,2.3,2.3,41,0.00,OVC,FEW,0.00,WeatherDisplay:10.37,2013-04-05 02:58:00,
2013-04-04 23:04:00,44.8,23.1,30.68,SW,223,3.5,3.5,42,0.00,OVC,FEW,0.00,WeatherDisplay:10.37,2013-04-05 03:04:00,
2013-04-04 23:10:00,45.0,22.7,30.68,West,276,2.3,2.3,41,0.00,OVC,FEW,0.00,WeatherDisplay:10.37,2013-04-05 03:10:00,
2013-04-04 23:15:00,45.3,23.0,30.68,WNW,287,3.5,3.5,41,0.00,OVC,FEW,0.00,WeatherDisplay:10.37,2013-04-05 03:15:00,
2013-04-04 23:20:00,45.5,23.1,30.68,SSW,193,3.0,3.0,41,0.00,OVC,FEW,0.00,WeatherDisplay:10.37,2013-04-05 03:20:00,
2013-04-04 23:25:00,45.5,23.1,30.68,West,259,3.5,3.5,41,0.00,OVC,FEW,0.00,WeatherDisplay:10.37,2013-04-05 03:25:00,
2013-04-04 23:30:00,45.6,23.2,30.68,WSW,249,1.2,1.2,41,0.00,OVC,FEW,0.00,WeatherDisplay:10.37,2013-04-05 03:30:00,
2013-04-04 23:35:00,45.5,23.1,30.68,WSW,243,1.2,1.2,41,0.00,OVC,FEW,0.00,WeatherDisplay:10.37,2013-04-05 03:35:00,
2013-04-04 23:40:00,45.5,23.1,30.67,SSW,208,2.3,2.3,41,0.00,OVC,FEW,0.00,WeatherDisplay:10.37,2013-04-05 03:40:00,
2013-04-04 23:45:00,45.6,22.6,30.68,SSW,203,2.0,2.0,40,0.00,OVC,FEW,0.00,WeatherDisplay:10.37,2013-04-05 03:45:00,
2013-04-04 23:50:00,45.5,23.1,30.67,SSW,193,2.3,2.3,41,0.00,OVC,FEW,0.00,WeatherDisplay:10.37,2013-04-05 03:50:00,
2013-04-04 23:55:00,45.5,22.5,30.67,SSW,207,2.3,2.3,40,0.00,OVC,FEW,0.00,WeatherDisplay:10.37,2013-04-05 03:55:00,